Time;durP1;ratioP1;P1;durP2;ratioP2;P2;SDS_P1;SDS_P2;PMS_P1;PMS_P2;Temp;Humidity;BMP_temperature;BMP_pressure;BME280_temperature;BME280_humidity;BME280_pressure;Samples;Min_cycle;Max_cycle;Signal;HPM_P1;HPM_P2
2022/11/22 00:00:31;;;;;;;9.77;5.30;;;15.50;99.90;;;;;;5019233;28;20718;-75
2022/11/22 00:02:58;;;;;;;8.70;5.17;;;15.50;99.90;;;;;;5018504;28;20203;-75
2022/11/22 00:05:25;;;;;;;12.60;5.73;;;15.50;99.90;;;;;;5019389;28;20199;-75
2022/11/22 00:07:51;;;;;;;14.63;6.07;;;15.50;99.90;;;;;;5015708;28;20284;-75
2022/11/22 00:10:21;;;;;;;9.80;5.47;;;15.60;99.90;;;;;;4996691;28;20204;-75
2022/11/22 00:12:47;;;;;;;10.20;5.63;;;15.50;99.90;;;;;;5014722;28;20191;-75
2022/11/22 00:15:14;;;;;;;7.27;5.30;;;15.50;99.90;;;;;;5018310;28;20227;-75
2022/11/22 00:17:42;;;;;;;13.87;5.77;;;15.60;99.90;;;;;;5017264;28;20271;-75
2022/11/22 00:20:12;;;;;;;15.20;5.60;;;15.50;99.90;;;;;;5000662;28;20183;-75
2022/11/22 00:22:39;;;;;;;12.37;5.60;;;15.50;99.90;;;;;;5002087;28;20597;-75
2022/11/22 00:25:06;;;;;;;12.90;5.33;;;15.50;99.90;;;;;;5007677;28;20192;-75
2022/11/22 00:27:33;;;;;;;11.57;6.10;;;15.50;99.90;;;;;;4997206;28;20188;-75
2022/11/22 00:29:59;;;;;;;8.37;5.57;;;15.50;99.90;;;;;;5014778;28;20236;-75
2022/11/22 00:32:25;;;;;;;14.17;6.10;;;15.50;99.90;;;;;;5026689;28;20270;-75
2022/11/22 00:34:52;;;;;;;9.67;5.77;;;15.50;99.90;;;;;;5019650;28;20177;-75
2022/11/22 00:37:19;;;;;;;8.80;5.60;;;15.50;99.90;;;;;;4988738;28;20766;-75
2022/11/22 00:39:45;;;;;;;10.50;5.90;;;15.60;99.90;;;;;;5009165;28;20188;-76
2022/11/22 00:42:12;;;;;;;9.47;5.53;;;15.60;99.90;;;;;;5011621;28;20560;-75
2022/11/22 00:44:38;;;;;;;12.17;5.97;;;15.60;99.90;;;;;;4990414;28;20181;-75
2022/11/22 00:47:04;;;;;;;10.33;5.60;;;15.60;99.90;;;;;;5016292;28;20874;-75
2022/11/22 00:49:30;;;;;;;12.23;5.50;;;15.60;99.90;;;;;;5015856;28;20230;-75
2022/11/22 00:51:57;;;;;;;17.00;5.90;;;15.60;99.90;;;;;;5007446;28;20191;-75
2022/11/22 00:54:24;;;;;;;13.03;6.27;;;15.60;99.90;;;;;;5004527;28;20188;-75
2022/11/22 00:56:50;;;;;;;12.40;6.17;;;15.60;99.90;;;;;;5011025;28;20234;-74
2022/11/22 00:59:16;;;;;;;11.70;5.30;;;15.60;99.90;;;;;;5024562;28;20196;-75
2022/11/22 01:01:43;;;;;;;10.80;5.23;;;15.60;99.90;;;;;;5007125;28;20196;-75
2022/11/22 01:04:13;;;;;;;9.77;5.40;;;15.60;99.90;;;;;;5006383;28;20193;-75
2022/11/22 01:06:40;;;;;;;13.67;6.07;;;15.50;99.90;;;;;;5019189;28;20195;-76
2022/11/22 01:09:07;;;;;;;10.50;5.33;;;15.50;99.90;;;;;;5016006;28;20200;-75
2022/11/22 01:11:34;;;;;;;11.90;5.57;;;15.50;99.90;;;;;;5019083;28;20206;-76
2022/11/22 01:14:01;;;;;;;9.80;5.93;;;15.50;99.90;;;;;;5027457;28;20184;-75
2022/11/22 01:16:27;;;;;;;11.40;5.60;;;15.50;99.90;;;;;;5007001;28;20545;-75
2022/11/22 01:18:54;;;;;;;16.13;5.90;;;15.50;99.90;;;;;;4995315;28;20208;-75
2022/11/22 01:21:20;;;;;;;12.43;5.83;;;15.50;99.90;;;;;;5006076;28;20209;-75
2022/11/22 01:23:47;;;;;;;9.93;5.60;;;15.60;99.90;;;;;;5021176;28;20226;-75
2022/11/22 01:26:13;;;;;;;10.53;5.53;;;15.60;99.90;;;;;;5007912;28;20188;-75
2022/11/22 01:28:39;;;;;;;12.07;5.97;;;15.60;99.90;;;;;;5012367;28;20177;-76
2022/11/22 01:31:06;;;;;;;13.00;5.53;;;15.60;99.90;;;;;;5019522;28;20288;-75
2022/11/22 01:33:32;;;;;;;8.40;5.50;;;15.60;99.90;;;;;;5006328;28;20701;-76
2022/11/22 01:35:59;;;;;;;15.00;5.60;;;15.70;99.90;;;;;;5015438;28;20276;-75
2022/11/22 01:38:26;;;;;;;9.67;5.60;;;15.70;99.90;;;;;;4999117;28;20629;-75
2022/11/22 01:40:53;;;;;;;12.23;5.43;;;15.70;99.90;;;;;;5017431;28;20274;-75
2022/11/22 01:43:23;;;;;;;10.03;5.77;;;15.70;99.90;;;;;;5017546;28;20230;-76
2022/11/22 01:46:02;;;;;;;15.00;5.20;;;15.70;99.90;;;;;;5006972;28;20184;-75
2022/11/22 01:48:44;;;;;;;20.97;5.33;;;15.70;99.90;;;;;;5015425;28;20180;-76
2022/11/22 01:51:28;;;;;;;14.00;5.37;;;15.80;99.90;;;;;;5006237;28;20207;-76
2022/11/22 01:54:01;;;;;;;9.57;5.20;;;15.70;99.90;;;;;;5018056;28;20264;-75
2022/11/22 01:56:29;;;;;;;11.90;5.40;;;15.80;99.90;;;;;;5010020;28;20180;-76
2022/11/22 01:59:08;;;;;;;11.67;5.60;;;15.80;99.90;;;;;;4995930;28;20216;-75
2022/11/22 02:01:36;;;;;;;9.40;5.07;;;15.80;99.90;;;;;;4998504;28;20176;-75
2022/11/22 02:04:07;;;;;;;11.30;5.50;;;15.80;99.90;;;;;;5000987;28;20281;-75
2022/11/22 02:06:53;;;;;;;11.90;5.50;;;15.80;99.90;;;;;;5017382;28;20176;-75
2022/11/22 02:09:21;;;;;;;12.17;6.10;;;15.80;99.90;;;;;;4997305;28;20192;-75
2022/11/22 02:11:56;;;;;;;10.87;5.40;;;15.80;99.90;;;;;;5021925;28;20211;-75
2022/11/22 02:14:26;;;;;;;9.87;5.20;;;15.80;99.90;;;;;;5008800;28;20180;-76
2022/11/22 02:16:53;;;;;;;11.47;5.40;;;15.80;99.90;;;;;;5002302;28;20188;-75
2022/11/22 02:19:36;;;;;;;8.40;4.77;;;15.80;99.90;;;;;;4983613;28;20184;-76
2022/11/22 02:22:50;;;;;;;12.93;5.43;;;15.80;99.90;;;;;;5023623;28;20499;-75
2022/11/22 02:25:40;;;;;;;11.77;4.87;;;15.80;99.90;;;;;;5023968;28;20263;-75
2022/11/22 02:28:10;;;;;;;9.83;5.13;;;15.80;99.90;;;;;;5006662;28;20192;-76
2022/11/22 02:30:37;;;;;;;9.40;4.90;;;15.80;99.90;;;;;;5000214;28;20294;-75
2022/11/22 02:33:04;;;;;;;13.10;5.60;;;15.80;99.90;;;;;;5006633;28;20189;-76
2022/11/22 02:35:31;;;;;;;12.93;5.43;;;15.80;99.90;;;;;;5006526;28;20276;-75
2022/11/22 02:38:05;;;;;;;9.93;5.00;;;15.80;99.90;;;;;;5019038;28;20279;-75
2022/11/22 02:40:45;;;;;;;10.00;5.13;;;15.80;99.90;;;;;;4994635;28;20745;-75
2022/11/22 02:43:22;;;;;;;11.07;5.37;;;15.80;99.90;;;;;;5022962;28;20207;-76
2022/11/22 02:45:48;;;;;;;16.10;5.70;;;15.80;99.90;;;;;;5011217;28;20195;-75
2022/11/22 02:48:17;;;;;;;11.10;4.97;;;15.80;99.90;;;;;;5021074;28;20261;-75
2022/11/22 02:50:44;;;;;;;9.27;5.00;;;15.80;99.90;;;;;;5027123;28;20416;-74
2022/11/22 02:53:12;;;;;;;10.83;5.03;;;15.80;99.90;;;;;;5025135;28;20188;-74
2022/11/22 02:55:39;;;;;;;11.77;5.07;;;15.80;99.90;;;;;;5028259;28;20882;-76
2022/11/22 02:58:06;;;;;;;12.60;5.53;;;15.70;99.90;;;;;;5017174;28;20379;-76
2022/11/22 03:00:37;;;;;;;11.47;4.87;;;15.70;99.90;;;;;;4989918;28;20176;-76
2022/11/22 03:03:05;;;;;;;11.83;5.53;;;15.70;99.90;;;;;;4993685;28;20200;-76
2022/11/22 03:05:32;;;;;;;15.70;5.80;;;15.70;99.90;;;;;;4994823;28;20207;-76
2022/11/22 03:07:58;;;;;;;12.30;5.60;;;15.60;99.90;;;;;;5026189;28;20684;-76
2022/11/22 03:10:25;;;;;;;9.43;5.37;;;15.60;99.90;;;;;;5020690;28;20234;-77
2022/11/22 03:12:51;;;;;;;10.87;5.20;;;15.60;99.90;;;;;;4999288;28;20193;-76
2022/11/22 03:15:18;;;;;;;10.93;5.73;;;15.60;99.90;;;;;;5007222;28;20720;-76
2022/11/22 03:17:44;;;;;;;11.10;5.83;;;15.60;99.90;;;;;;5019993;28;20179;-76
2022/11/22 03:20:11;;;;;;;9.70;5.80;;;15.60;99.90;;;;;;5009989;28;20636;-76
2022/11/22 03:22:37;;;;;;;16.37;5.83;;;15.70;99.90;;;;;;5002149;28;20334;-76
2022/11/22 03:25:05;;;;;;;9.43;5.63;;;15.70;99.90;;;;;;4997566;28;20283;-76
2022/11/22 03:27:31;;;;;;;10.37;5.60;;;15.70;99.90;;;;;;5005111;28;20566;-76
2022/11/22 03:29:58;;;;;;;17.03;5.70;;;15.70;99.90;;;;;;5027370;28;20254;-76
2022/11/22 03:32:24;;;;;;;13.60;5.93;;;15.70;99.90;;;;;;5008842;28;20569;-76
2022/11/22 03:34:50;;;;;;;10.30;5.80;;;15.70;99.90;;;;;;5003092;28;20275;-76
2022/11/22 03:37:17;;;;;;;13.37;6.50;;;15.70;99.90;;;;;;5026729;28;20254;-76
2022/11/22 03:39:43;;;;;;;10.57;5.90;;;15.70;99.90;;;;;;5007725;28;20837;-76
2022/11/22 03:42:10;;;;;;;14.50;6.07;;;15.70;99.90;;;;;;5005995;28;20536;-76
2022/11/22 03:44:36;;;;;;;10.45;6.35;;;15.70;99.90;;;;;;4997695;28;20431;-76
2022/11/22 03:47:03;;;;;;;12.57;5.77;;;15.70;99.90;;;;;;5023731;28;20397;-76
2022/11/22 03:49:29;;;;;;;11.70;6.07;;;15.70;99.90;;;;;;5002781;28;20545;-76
2022/11/22 03:51:55;;;;;;;10.63;5.50;;;15.70;99.90;;;;;;5027703;28;20258;-76
2022/11/22 03:54:22;;;;;;;9.50;5.40;;;15.70;99.90;;;;;;5028907;28;20265;-76
2022/11/22 03:56:48;;;;;;;10.50;5.60;;;15.70;99.90;;;;;;4980651;28;20189;-76
2022/11/22 03:59:14;;;;;;;11.13;5.93;;;15.70;99.90;;;;;;5007143;28;20185;-76
2022/11/22 04:01:40;;;;;;;13.40;6.07;;;15.70;99.90;;;;;;5010969;28;20199;-76
2022/11/22 04:04:07;;;;;;;8.77;5.57;;;15.70;99.90;;;;;;4999975;28;20216;-76
2022/11/22 04:06:33;;;;;;;11.03;5.50;;;15.70;99.90;;;;;;5021458;28;20526;-76
2022/11/22 04:08:59;;;;;;;11.47;6.10;;;15.70;99.90;;;;;;5023036;28;20196;-76
2022/11/22 04:11:27;;;;;;;15.07;5.80;;;15.70;99.90;;;;;;5012290;28;20732;-76
2022/11/22 04:16:42;;;;;;;11.47;5.80;;;15.70;99.90;;;;;;5023756;28;20192;-76
2022/11/22 04:19:09;;;;;;;12.10;5.77;;;15.70;99.90;;;;;;5011301;28;20192;-76
2022/11/22 04:21:35;;;;;;;9.80;5.97;;;15.70;99.90;;;;;;5021662;28;20193;-76
2022/11/22 04:26:54;;;;;;;14.40;5.83;;;15.80;99.90;;;;;;5001889;28;20674;-76
2022/11/22 04:29:21;;;;;;;14.63;6.67;;;15.80;99.90;;;;;;5014225;28;20307;-76
2022/11/22 04:34:35;;;;;;;7.93;6.00;;;15.90;99.90;;;;;;5008751;28;20212;-76
2022/11/22 04:37:03;;;;;;;15.40;6.63;;;15.90;99.90;;;;;;5009675;28;20659;-76
2022/11/22 04:39:29;;;;;;;13.77;6.57;;;15.90;99.90;;;;;;5027842;28;20191;-76
2022/11/22 04:44:46;;;;;;;12.00;6.97;;;15.90;99.90;;;;;;5007943;28;20184;-77
2022/11/22 04:52:55;;;;;;;13.80;6.63;;;16.00;99.90;;;;;;4977541;28;20212;-76
2022/11/22 04:55:22;;;;;;;15.83;6.97;;;16.00;99.90;;;;;;5008142;28;20259;-76
2022/11/22 04:57:48;;;;;;;11.13;6.90;;;16.10;99.90;;;;;;5024831;28;20173;-76
2022/11/22 05:00:16;;;;;;;16.73;7.60;;;16.10;99.90;;;;;;5017902;28;20598;-76
2022/11/22 05:02:42;;;;;;;19.73;7.50;;;16.20;99.90;;;;;;5005588;28;20741;-76
2022/11/22 05:05:10;;;;;;;14.73;7.37;;;16.30;99.90;;;;;;5005268;28;20197;-76
2022/11/22 05:07:37;;;;;;;14.73;8.43;;;16.40;99.90;;;;;;5018717;28;20192;-76
2022/11/22 05:10:04;;;;;;;21.67;9.03;;;16.40;99.90;;;;;;5028020;28;20287;-76
2022/11/22 05:12:33;;;;;;;14.90;7.90;;;16.40;99.90;;;;;;5024555;28;20343;-76
2022/11/22 05:14:59;;;;;;;18.23;7.93;;;16.40;99.90;;;;;;5016652;28;20267;-77
2022/11/22 05:17:26;;;;;;;15.67;8.40;;;16.30;99.90;;;;;;5013603;28;20188;-76
2022/11/22 05:19:52;;;;;;;11.40;7.93;;;16.40;99.90;;;;;;5018260;28;20538;-77
2022/11/22 05:23:53;;;;;;;17.73;8.40;;;16.40;99.90;;;;;;5009484;28;20180;-76
2022/11/22 05:25:09;;;;;;;17.23;8.60;;;16.40;99.90;;;;;;5010334;28;20676;-76
2022/11/22 05:27:37;;;;;;;13.07;8.93;;;16.30;99.90;;;;;;5009310;28;20185;-77
2022/11/22 05:30:05;;;;;;;16.70;8.87;;;16.40;99.90;;;;;;5009067;28;20254;-76
2022/11/22 05:32:32;;;;;;;18.80;10.13;;;16.50;99.90;;;;;;5020539;28;20279;-77
2022/11/22 05:34:59;;;;;;;17.03;9.37;;;16.40;99.90;;;;;;5014289;28;20188;-76
2022/11/22 05:37:25;;;;;;;17.23;9.47;;;16.50;99.90;;;;;;5002913;28;20522;-76
2022/11/22 05:39:52;;;;;;;24.73;9.70;;;16.50;99.90;;;;;;4990026;28;20245;-76
2022/11/22 05:42:19;;;;;;;21.67;10.77;;;16.50;99.90;;;;;;5002342;28;20196;-76
2022/11/22 05:44:46;;;;;;;16.17;9.17;;;16.50;99.90;;;;;;5015826;28;20220;-76
2022/11/22 05:47:12;;;;;;;18.33;9.13;;;16.60;99.90;;;;;;5022730;28;20180;-76
2022/11/22 05:49:39;;;;;;;16.50;9.60;;;16.50;99.90;;;;;;5002209;28;20836;-76
2022/11/22 05:52:05;;;;;;;15.20;9.67;;;16.50;99.90;;;;;;4998979;28;20196;-76
2022/11/22 05:54:31;;;;;;;14.20;9.07;;;16.50;99.90;;;;;;5000474;28;20505;-76
2022/11/22 05:56:57;;;;;;;17.63;10.37;;;16.50;99.90;;;;;;4986002;28;20865;-77
2022/11/22 05:59:24;;;;;;;14.60;9.90;;;16.60;99.90;;;;;;4993339;28;20620;-76
2022/11/22 06:01:50;;;;;;;17.63;9.60;;;16.60;99.90;;;;;;5004056;28;20303;-76
2022/11/22 06:04:16;;;;;;;19.90;9.57;;;16.60;99.90;;;;;;5007287;28;20206;-76
2022/11/22 06:06:46;;;;;;;14.70;9.00;;;16.60;99.90;;;;;;4999191;28;20204;-76
2022/11/22 06:09:13;;;;;;;15.83;9.10;;;16.60;99.90;;;;;;5024620;28;20203;-76
2022/11/22 06:11:39;;;;;;;20.20;9.73;;;16.60;99.90;;;;;;4992377;28;20715;-77
2022/11/22 06:14:08;;;;;;;19.93;8.23;;;16.60;99.90;;;;;;5007217;28;20193;-76
2022/11/22 06:16:35;;;;;;;21.63;8.20;;;16.60;99.90;;;;;;5010039;28;20188;-76
2022/11/22 06:19:02;;;;;;;13.80;7.90;;;16.60;99.90;;;;;;5002323;28;20188;-76
2022/11/22 06:21:28;;;;;;;16.90;8.27;;;16.60;99.90;;;;;;5009735;28;20199;-76
2022/11/22 06:23:55;;;;;;;18.37;8.30;;;16.70;99.90;;;;;;5002366;28;20235;-77
2022/11/22 06:26:24;;;;;;;22.03;9.23;;;16.70;99.90;;;;;;5025394;28;20283;-76
2022/11/22 06:28:52;;;;;;;18.00;7.57;;;16.70;99.90;;;;;;5027716;28;20723;-76
2022/11/22 06:31:22;;;;;;;14.23;7.97;;;16.80;99.90;;;;;;5022183;28;20234;-76
2022/11/22 06:33:49;;;;;;;13.87;7.83;;;16.80;99.90;;;;;;5026550;28;20215;-76
2022/11/22 06:36:19;;;;;;;14.27;7.43;;;16.80;99.90;;;;;;5017369;28;20201;-76
2022/11/22 06:38:46;;;;;;;12.13;7.90;;;16.80;99.90;;;;;;5022684;28;20187;-77
2022/11/22 06:41:18;;;;;;;22.43;7.97;;;16.80;99.90;;;;;;5007650;28;20323;-76
2022/11/22 06:43:47;;;;;;;16.67;8.07;;;16.90;99.90;;;;;;5019021;28;20196;-76
2022/11/22 06:46:21;;;;;;;16.83;7.67;;;16.90;99.90;;;;;;4998716;28;20189;-76
2022/11/22 06:48:48;;;;;;;15.20;7.77;;;16.90;99.90;;;;;;4992321;28;20736;-76
2022/11/22 06:51:19;;;;;;;19.87;7.33;;;17.00;99.90;;;;;;5005708;28;20216;-76
2022/11/22 06:53:48;;;;;;;15.27;7.13;;;16.90;99.90;;;;;;5009299;28;20291;-76
2022/11/22 06:56:20;;;;;;;16.97;7.53;;;16.90;99.90;;;;;;5000098;28;20752;-76
2022/11/22 06:58:49;;;;;;;14.23;7.60;;;16.90;99.90;;;;;;4988578;28;20614;-76
2022/11/22 07:01:25;;;;;;;13.37;7.30;;;16.90;99.90;;;;;;5014874;28;20653;-76
2022/11/22 07:03:56;;;;;;;16.07;7.47;;;16.90;99.90;;;;;;4987139;28;20556;-76
2022/11/22 07:06:34;;;;;;;16.17;7.57;;;16.90;99.90;;;;;;5005024;28;20198;-76
2022/11/22 07:09:05;;;;;;;18.73;7.70;;;17.00;99.90;;;;;;4979824;28;20247;-76
2022/11/22 07:11:33;;;;;;;15.67;7.40;;;17.00;99.90;;;;;;5003740;28;20200;-76
2022/11/22 07:14:02;;;;;;;19.37;7.67;;;17.10;99.90;;;;;;5013627;28;20261;-76
2022/11/22 07:16:29;;;;;;;12.33;7.47;;;17.10;99.90;;;;;;5016555;28;20526;-76
2022/11/22 07:18:58;;;;;;;11.20;7.43;;;17.10;99.90;;;;;;5020520;28;20979;-76
2022/11/22 07:21:25;;;;;;;14.60;7.67;;;17.10;99.90;;;;;;5006015;28;20227;-76
2022/11/22 07:23:54;;;;;;;11.93;7.60;;;17.20;99.90;;;;;;5017408;28;20662;-76
2022/11/22 07:26:23;;;;;;;16.47;8.03;;;17.30;99.90;;;;;;5001213;28;20196;-76
2022/11/22 07:28:53;;;;;;;12.90;7.53;;;17.20;99.90;;;;;;4992097;28;20246;-76
2022/11/22 07:31:20;;;;;;;19.70;7.90;;;17.20;99.90;;;;;;5024527;28;20207;-76
2022/11/22 07:33:47;;;;;;;12.67;7.63;;;17.20;99.90;;;;;;5017883;28;20220;-76
2022/11/22 07:36:57;;;;;;;16.97;7.70;;;17.20;99.90;;;;;;5017777;28;20879;-76
2022/11/22 07:39:23;;;;;;;12.37;6.93;;;17.20;99.90;;;;;;5006935;28;20192;-76
2022/11/22 07:41:49;;;;;;;11.20;7.17;;;17.20;99.90;;;;;;4985889;28;20290;-77
2022/11/22 07:44:16;;;;;;;14.57;6.97;;;17.20;99.90;;;;;;5020809;28;20188;-77
2022/11/22 07:46:43;;;;;;;14.33;7.30;;;17.30;99.90;;;;;;5005847;28;20202;-76
2022/11/22 07:49:09;;;;;;;10.83;7.27;;;17.20;99.90;;;;;;5011057;28;20196;-76
2022/11/22 07:51:36;;;;;;;13.70;8.03;;;17.30;99.90;;;;;;4996759;28;20215;-76
2022/11/22 07:54:02;;;;;;;14.30;7.17;;;17.40;99.90;;;;;;5003404;28;20327;-76
2022/11/22 07:56:28;;;;;;;13.47;7.10;;;17.50;99.90;;;;;;5008479;28;20192;-76
2022/11/22 07:58:55;;;;;;;17.10;7.10;;;17.60;99.90;;;;;;4988870;28;21181;-76
2022/11/22 08:01:22;;;;;;;16.87;7.37;;;17.60;99.90;;;;;;5001155;28;20541;-76
2022/11/22 08:03:49;;;;;;;23.17;7.60;;;17.60;99.90;;;;;;4990318;28;20641;-76
2022/11/22 08:06:15;;;;;;;14.50;7.03;;;17.60;99.90;;;;;;4985274;28;20247;-76
2022/11/22 08:08:42;;;;;;;21.43;7.43;;;17.70;99.90;;;;;;5016457;28;20761;-76
2022/11/22 08:11:11;;;;;;;17.50;6.87;;;17.60;99.90;;;;;;5001762;28;20229;-76
2022/11/22 08:13:38;;;;;;;19.23;7.23;;;17.60;99.90;;;;;;5018466;28;20254;-76
2022/11/22 08:16:09;;;;;;;17.23;6.73;;;17.50;99.90;;;;;;5018180;28;20263;-76
2022/11/22 08:18:37;;;;;;;23.97;7.30;;;17.60;99.90;;;;;;5018761;28;20216;-76
2022/11/22 08:21:10;;;;;;;29.83;6.87;;;17.60;99.90;;;;;;5006232;28;20228;-76
2022/11/22 08:23:38;;;;;;;26.00;6.80;;;17.70;99.90;;;;;;4999999;28;20746;-75
2022/11/22 08:26:07;;;;;;;23.90;6.90;;;17.80;99.90;;;;;;4994588;28;20239;-76
2022/11/22 08:28:34;;;;;;;20.73;7.30;;;17.90;99.90;;;;;;4999927;28;20548;-77
2022/11/22 08:31:09;;;;;;;18.23;6.77;;;18.00;99.90;;;;;;4989156;28;20215;-76
2022/11/22 08:33:36;;;;;;;14.97;6.10;;;18.00;99.90;;;;;;4998650;28;20576;-77
2022/11/22 08:36:03;;;;;;;17.27;5.80;;;18.00;99.90;;;;;;5003642;28;20196;-76
2022/11/22 08:38:30;;;;;;;19.27;6.07;;;18.00;99.90;;;;;;4989160;28;20287;-77
2022/11/22 08:40:57;;;;;;;15.47;5.73;;;18.10;99.90;;;;;;5016282;28;20203;-77
2022/11/22 08:43:23;;;;;;;25.67;5.70;;;18.00;99.90;;;;;;5018454;28;20215;-76
2022/11/22 08:45:56;;;;;;;20.07;6.07;;;18.00;99.90;;;;;;4997910;28;20197;-77
2022/11/22 08:48:28;;;;;;;28.47;6.30;;;18.00;99.90;;;;;;5010396;28;20191;-76
2022/11/22 08:51:05;;;;;;;19.60;6.00;;;18.20;99.90;;;;;;4999160;28;20220;-76
2022/11/22 08:53:33;;;;;;;34.93;7.23;;;18.30;99.90;;;;;;4979343;28;20280;-76
2022/11/22 08:56:03;;;;;;;35.03;7.13;;;18.30;99.90;;;;;;4996936;28;20190;-76
2022/11/22 08:58:32;;;;;;;34.23;6.70;;;18.20;99.90;;;;;;4996931;28;20212;-77
2022/11/22 09:01:12;;;;;;;44.73;7.70;;;18.20;99.90;;;;;;5000290;28;20227;-76
2022/11/22 09:03:40;;;;;;;46.90;7.10;;;18.30;99.90;;;;;;5012318;28;20195;-76
2022/11/22 09:06:11;;;;;;;41.27;7.10;;;18.30;99.90;;;;;;5017552;28;20325;-76
2022/11/22 09:08:38;;;;;;;35.00;7.20;;;18.20;99.90;;;;;;4987331;28;20232;-76
2022/11/22 09:11:09;;;;;;;47.47;8.03;;;18.30;99.90;;;;;;5015909;28;20216;-76
2022/11/22 09:13:37;;;;;;;59.33;7.80;;;18.30;99.90;;;;;;4980603;28;21329;-76
2022/11/22 09:16:18;;;;;;;61.87;9.97;;;18.40;99.90;;;;;;4985956;28;20199;-76
2022/11/22 09:18:46;;;;;;;45.27;6.97;;;18.30;99.90;;;;;;5000544;28;20353;-76
2022/11/22 09:21:17;;;;;;;42.53;8.07;;;18.40;99.90;;;;;;5004606;28;20184;-76
2022/11/22 09:23:47;;;;;;;52.37;7.87;;;18.50;99.90;;;;;;5019788;28;20550;-76
2022/11/22 09:26:26;;;;;;;44.63;6.73;;;18.60;99.90;;;;;;4991546;28;20672;-76
2022/11/22 09:28:52;;;;;;;53.03;8.10;;;18.80;99.90;;;;;;4999407;28;20196;-76
2022/11/22 09:31:23;;;;;;;54.00;7.90;;;18.80;99.90;;;;;;5016657;28;20640;-76
2022/11/22 09:33:50;;;;;;;60.33;8.10;;;18.80;99.90;;;;;;4998019;28;20188;-76
2022/11/22 09:36:21;;;;;;;60.97;7.33;;;18.90;99.90;;;;;;5016550;28;20184;-76
2022/11/22 09:38:48;;;;;;;66.03;8.77;;;18.90;99.90;;;;;;5004630;28;20816;-76
2022/11/22 09:41:45;;;;;;;51.50;7.80;;;18.80;99.90;;;;;;5007261;28;20188;-76
2022/11/22 09:45:09;;;;;;;42.90;7.43;;;18.70;99.90;;;;;;5013001;28;20185;-76
2022/11/22 09:48:02;;;;;;;61.47;8.67;;;18.70;99.90;;;;;;4989405;28;20286;-76
2022/11/22 09:50:59;;;;;;;60.77;9.47;;;18.60;99.90;;;;;;4987296;28;20288;-76
2022/11/22 09:54:04;;;;;;;45.67;7.57;;;18.80;99.90;;;;;;4996236;28;20669;-76
2022/11/22 09:56:33;;;;;;;35.73;5.73;;;18.90;99.90;;;;;;5020477;28;20263;-76
2022/11/22 09:59:21;;;;;;;50.00;6.67;;;19.00;99.90;;;;;;4983766;28;20619;-76
2022/11/22 10:02:05;;;;;;;39.87;6.43;;;19.00;99.90;;;;;;5015659;28;20228;-76
2022/11/22 10:04:53;;;;;;;30.60;5.23;;;19.00;99.90;;;;;;5003992;28;20695;-76
2022/11/22 10:07:27;;;;;;;38.53;5.23;;;19.10;99.90;;;;;;4976906;28;20285;-76
2022/11/22 10:10:10;;;;;;;30.57;5.23;;;19.20;99.90;;;;;;4996278;28;20204;-76
2022/11/22 10:12:52;;;;;;;40.20;5.67;;;19.20;99.90;;;;;;5012918;28;20192;-76
2022/11/22 10:16:03;;;;;;;31.73;5.17;;;19.10;99.90;;;;;;4987105;28;20188;-76
2022/11/22 10:18:59;;;;;;;32.63;5.20;;;19.00;99.90;;;;;;4998390;28;20227;-76
2022/11/22 10:21:26;;;;;;;40.67;5.70;;;18.90;99.90;;;;;;5002057;28;20215;-76
2022/11/22 10:23:53;;;;;;;40.03;5.37;;;18.80;99.90;;;;;;4997949;28;20215;-76
2022/11/22 10:26:31;;;;;;;45.33;5.90;;;18.80;99.90;;;;;;5002095;28;20271;-76
2022/11/22 10:29:35;;;;;;;34.93;5.37;;;18.80;99.90;;;;;;5020796;28;20192;-76
2022/11/22 10:32:20;;;;;;;27.47;3.73;;;18.80;99.90;;;;;;5017285;28;20230;-76
2022/11/22 10:35:23;;;;;;;23.50;4.30;;;18.60;99.90;;;;;;4998244;28;20193;-76
2022/11/22 10:38:17;;;;;;;22.70;4.20;;;18.50;99.90;;;;;;4989186;28;20287;-76
2022/11/22 10:41:33;;;;;;;26.67;4.87;;;18.40;99.90;;;;;;4976148;28;20213;-76
2022/11/22 10:44:30;;;;;;;29.83;3.60;;;18.30;99.90;;;;;;5002975;28;20250;-77
2022/11/22 10:47:40;;;;;;;24.23;4.00;;;18.40;99.90;;;;;;4965822;28;20201;-77
2022/11/22 10:50:29;;;;;;;22.70;3.50;;;18.70;99.90;;;;;;4986279;28;20228;-77
2022/11/22 10:53:20;;;;;;;13.50;2.20;;;19.00;99.90;;;;;;4996923;28;20303;-76
2022/11/22 10:56:07;;;;;;;13.40;2.53;;;19.00;99.90;;;;;;5012571;28;20795;-76
2022/11/22 10:59:14;;;;;;;12.23;2.10;;;18.90;99.90;;;;;;5021932;28;20276;-77
2022/11/22 11:02:30;;;;;;;16.63;2.97;;;18.90;99.90;;;;;;5005405;28;20216;-77
2022/11/22 11:05:01;;;;;;;11.53;2.13;;;19.10;99.90;;;;;;5004792;28;20616;-76
2022/11/22 11:07:40;;;;;;;13.47;2.67;;;19.10;99.90;;;;;;5000407;28;20196;-77
2022/11/22 11:10:21;;;;;;;10.83;1.97;;;19.20;99.90;;;;;;5017329;28;20298;-77
2022/11/22 11:13:25;;;;;;;15.02;2.15;;;19.30;99.90;;;;;;5009825;28;20193;-77
2022/11/22 11:15:56;;;;;;;8.50;2.03;;;19.40;99.90;;;;;;4938676;28;20207;-77
2022/11/22 11:18:32;;;;;;;7.67;1.67;;;19.40;99.90;;;;;;5012168;28;20279;-77
2022/11/22 11:21:06;;;;;;;14.77;2.17;;;19.50;99.90;;;;;;5007750;28;20509;-77
2022/11/22 11:23:34;;;;;;;8.77;2.17;;;19.60;99.90;;;;;;4998626;28;20196;-76
2022/11/22 11:26:30;;;;;;;12.17;2.23;;;19.60;99.90;;;;;;5009080;28;20250;-76
2022/11/22 11:29:15;;;;;;;15.73;2.43;;;19.50;99.90;;;;;;4998854;28;20207;-76
2022/11/22 11:31:45;;;;;;;7.27;2.23;;;19.40;99.90;;;;;;4992963;28;20212;-76
2022/11/22 11:34:24;;;;;;;12.27;2.20;;;19.40;99.90;;;;;;5024374;28;20278;-76
2022/11/22 11:36:56;;;;;;;7.27;1.70;;;19.40;99.90;;;;;;4998707;28;20193;-76
2022/11/22 11:39:34;;;;;;;7.50;1.50;;;19.50;99.90;;;;;;5017722;28;20193;-76
2022/11/22 11:42:27;;;;;;;10.17;1.80;;;19.50;99.90;;;;;;5015696;28;20616;-76
2022/11/22 11:44:54;;;;;;;7.90;2.30;;;19.50;99.90;;;;;;4983680;28;20203;-76
2022/11/22 11:47:36;;;;;;;16.37;2.17;;;19.50;99.90;;;;;;4993607;28;20192;-76
2022/11/22 11:50:15;;;;;;;10.37;2.10;;;19.50;99.90;;;;;;5005495;28;20213;-77
2022/11/22 11:52:54;;;;;;;11.43;2.10;;;19.50;99.90;;;;;;5017552;28;20208;-76
2022/11/22 11:55:22;;;;;;;7.97;1.90;;;19.30;99.90;;;;;;4999486;28;20192;-76
2022/11/22 11:57:51;;;;;;;10.63;2.27;;;19.10;99.90;;;;;;5026284;28;20653;-76
2022/11/22 12:00:27;;;;;;;10.70;1.87;;;19.00;99.90;;;;;;5017326;28;20247;-76
2022/11/22 12:03:06;;;;;;;14.43;2.27;;;18.90;99.90;;;;;;5020036;28;20199;-76
2022/11/22 12:05:34;;;;;;;18.00;2.83;;;18.80;99.90;;;;;;5023399;28;20655;-76
2022/11/22 12:08:00;;;;;;;16.97;2.43;;;18.70;99.90;;;;;;4981427;28;20207;-76
2022/11/22 12:11:08;;;;;;;16.13;2.40;;;18.60;99.90;;;;;;5000040;28;20301;-76
2022/11/22 12:13:45;;;;;;;13.33;2.70;;;18.60;99.90;;;;;;4998894;28;20192;-76
2022/11/22 12:16:36;;;;;;;16.27;2.83;;;18.50;99.90;;;;;;5022996;28;20184;-76
2022/11/22 12:19:40;;;;;;;11.57;2.40;;;18.40;99.90;;;;;;4997746;28;20612;-76
2022/11/22 12:22:30;;;;;;;19.10;2.70;;;18.30;99.90;;;;;;4995070;28;20192;-76
2022/11/22 12:25:34;;;;;;;10.53;2.10;;;18.30;99.90;;;;;;5021749;28;20200;-76
2022/11/22 12:28:23;;;;;;;16.93;2.67;;;18.20;99.90;;;;;;5015352;28;20193;-76
2022/11/22 12:31:29;;;;;;;11.50;2.30;;;18.20;99.90;;;;;;4986643;28;20223;-76
2022/11/22 12:34:25;;;;;;;17.83;2.93;;;18.30;99.90;;;;;;4984241;28;20191;-76
2022/11/22 12:37:21;;;;;;;17.53;2.70;;;18.40;99.90;;;;;;5004099;28;20242;-76
2022/11/22 12:39:52;;;;;;;18.23;3.40;;;18.40;99.90;;;;;;4983830;28;20199;-75
2022/11/22 12:42:45;;;;;;;14.37;3.20;;;18.30;99.90;;;;;;5005560;28;20279;-75
2022/11/22 12:45:31;;;;;;;20.87;3.10;;;18.40;99.90;;;;;;5014006;28;20192;-76
2022/11/22 12:48:18;;;;;;;16.77;2.80;;;18.40;99.90;;;;;;5007808;28;20237;-75
2022/11/22 12:50:53;;;;;;;14.40;2.57;;;18.30;99.90;;;;;;5002461;28;20677;-76
2022/11/22 12:53:44;;;;;;;12.10;2.70;;;18.20;99.90;;;;;;5017650;28;20838;-75
2022/11/22 12:56:41;;;;;;;8.83;1.90;;;18.20;99.90;;;;;;4982353;28;20249;-75
2022/11/22 12:59:11;;;;;;;21.17;3.20;;;18.30;99.90;;;;;;5004482;28;20192;-76
2022/11/22 13:01:56;;;;;;;20.00;2.90;;;18.30;99.90;;;;;;5021816;28;20272;-76
2022/11/22 13:05:10;;;;;;;18.10;2.53;;;18.40;99.90;;;;;;5019337;28;20189;-75
2022/11/22 13:07:51;;;;;;;13.60;2.50;;;18.40;99.90;;;;;;4961936;28;20417;-76
2022/11/22 13:10:56;;;;;;;17.10;2.73;;;18.30;99.90;;;;;;4982412;28;20215;-76
2022/11/22 13:13:40;;;;;;;10.47;2.37;;;18.30;99.90;;;;;;4981904;28;20214;-76
2022/11/22 13:16:12;;;;;;;12.30;2.10;;;18.40;99.90;;;;;;4996675;28;20262;-76
2022/11/22 13:19:07;;;;;;;13.53;2.47;;;18.40;99.90;;;;;;5000896;28;20707;-76
2022/11/22 13:22:09;;;;;;;10.87;2.83;;;18.30;99.90;;;;;;5016737;28;20206;-76
2022/11/22 13:25:01;;;;;;;12.23;2.20;;;18.30;99.90;;;;;;4996862;28;20190;-75
2022/11/22 13:27:43;;;;;;;9.73;2.10;;;18.30;99.90;;;;;;4984668;28;20215;-75